Aviation Digital Data Service (ADDS)

Output produced by METARs form (0248 UTC 21 August 2017)
found at http://aviationweather.gov/adds/metars/
 
KGON 210242Z 2103/2124 VRB03KT P6SM SKC 
     FM211400 23007KT P6SM FEW250 
     FM211700 21010KT P6SM FEW050 SCT250